createdAt,value
2022-08-17T00:02:25.506Z,99453.50
2022-08-17T00:04:53.862Z,99456.75
2022-08-17T00:07:20.618Z,99451.84
2022-08-17T00:09:47.292Z,99459.50
2022-08-17T00:12:43.565Z,99461.06
2022-08-17T00:15:01.340Z,99462.16
2022-08-17T00:17:28.022Z,99451.69
2022-08-17T00:19:54.701Z,99452.19
2022-08-17T00:22:34.726Z,99452.19
2022-08-17T00:25:07.208Z,99435.34
2022-08-17T00:27:34.551Z,99441.69
2022-08-17T00:30:01.263Z,99446.09
2022-08-17T00:33:14.415Z,99434.50
2022-08-17T00:35:18.394Z,99440.47
2022-08-17T00:37:45.353Z,99434.16
2022-08-17T00:40:14.417Z,99435.00
2022-08-17T00:42:42.535Z,99434.50
2022-08-17T00:45:12.398Z,99430.72
2022-08-17T00:47:39.377Z,99437.97
2022-08-17T00:50:10.284Z,99442.16
2022-08-17T00:52:42.553Z,99444.81
2022-08-17T00:55:09.495Z,99446.97
2022-08-17T00:57:42.179Z,99445.81
2022-08-17T01:00:21.414Z,99450.13
2022-08-17T01:02:48.984Z,99445.59
2022-08-17T01:05:19.969Z,99444.44
2022-08-17T01:07:48.239Z,99449.66
2022-08-17T01:11:00.423Z,99450.53
2022-08-17T01:13:05.258Z,99448.28
2022-08-17T01:15:36.503Z,99449.91
2022-08-17T01:18:05.511Z,99448.50
2022-08-17T01:20:34.468Z,99452.91
2022-08-17T01:23:20.485Z,99457.56
2022-08-17T01:25:51.212Z,99452.56
2022-08-17T01:28:52.404Z,99456.38
2022-08-17T01:31:08.434Z,99457.47
2022-08-17T01:33:35.836Z,99458.22
2022-08-17T01:36:04.474Z,99451.53
2022-08-17T01:38:31.950Z,99449.91
2022-08-17T01:41:03.370Z,99452.88
2022-08-17T01:43:44.057Z,99443.22
2022-08-17T01:46:21.889Z,99442.41
2022-08-17T01:48:48.661Z,99439.03
2022-08-17T01:51:16.065Z,99437.41
2022-08-17T01:53:48.489Z,99435.16
2022-08-17T01:56:18.437Z,99439.19
2022-08-17T01:58:45.785Z,99438.38
2022-08-17T02:01:14.904Z,99436.13
2022-08-17T02:03:42.352Z,99439.69
2022-08-17T02:06:28.329Z,99430.03
2022-08-17T02:09:02.245Z,99435.50
2022-08-17T02:11:32.425Z,99434.69
2022-08-17T02:14:03.167Z,99424.53
2022-08-17T02:16:37.687Z,99427.28
2022-08-17T02:19:11.030Z,99423.97
2022-08-17T02:21:39.201Z,99423.38
2022-08-17T02:24:59.931Z,99418.41
2022-08-17T02:27:10.107Z,99419.56
2022-08-17T02:29:37.288Z,99426.72
2022-08-17T02:32:05.096Z,99427.41
2022-08-17T02:34:32.470Z,99429.06
2022-08-17T02:36:59.342Z,99432.28
2022-08-17T02:39:26.004Z,99431.22
2022-08-17T02:42:01.801Z,99438.63
2022-08-17T02:44:39.211Z,99424.91
2022-08-17T02:47:09.491Z,99430.72
2022-08-17T02:49:36.652Z,99429.41
2022-08-17T02:52:06.999Z,99426.44
2022-08-17T02:54:40.210Z,99428.19
2022-08-17T02:57:10.447Z,99438.41
2022-08-17T02:59:39.023Z,99430.09
2022-08-17T03:02:11.304Z,99434.25
2022-08-17T03:04:38.481Z,99437.50
2022-08-17T03:07:05.439Z,99442.41
2022-08-17T03:09:32.880Z,99441.53
2022-08-17T03:12:12.984Z,99446.22
2022-08-17T03:14:43.415Z,99445.03
2022-08-17T03:17:16.998Z,99443.88
2022-08-17T03:19:44.971Z,99437.19
2022-08-17T03:22:36.873Z,99444.84
2022-08-17T03:24:58.512Z,99448.31
2022-08-17T03:27:25.294Z,99448.06
2022-08-17T03:29:51.973Z,99463.91
2022-08-17T03:32:20.757Z,99455.59
2022-08-17T03:34:47.502Z,99455.22
2022-08-17T03:37:14.787Z,99450.78
2022-08-17T03:39:41.478Z,99465.81
2022-08-17T03:42:31.278Z,99467.97
2022-08-17T03:45:00.380Z,99473.94
2022-08-17T03:47:45.696Z,99465.94
2022-08-17T03:50:32.466Z,99472.75
2022-08-17T03:53:18.476Z,99476.56
2022-08-17T03:56:03.478Z,99471.56
2022-08-17T03:58:30.165Z,99474.06
2022-08-17T04:00:56.966Z,99482.06
2022-08-17T04:03:23.930Z,99482.06
2022-08-17T04:05:50.610Z,99481.72
2022-08-17T04:08:17.260Z,99470.00
2022-08-17T04:10:45.151Z,99471.44
2022-08-17T04:13:12.900Z,99477.25
2022-08-17T04:15:40.238Z,99484.41
2022-08-17T04:18:07.729Z,99480.13
2022-08-17T04:20:38.064Z,99475.34
2022-08-17T04:23:07.005Z,99487.53
2022-08-17T04:25:36.457Z,99481.06
2022-08-17T04:28:05.097Z,99491.88
2022-08-17T04:30:37.909Z,99492.25
2022-08-17T04:33:10.204Z,99493.41
2022-08-17T04:35:43.163Z,99498.25
2022-08-17T04:38:18.000Z,99500.75
2022-08-17T04:41:03.914Z,99504.78
2022-08-17T04:43:32.556Z,99503.81
2022-08-17T04:46:04.935Z,99506.66
2022-08-17T04:48:37.783Z,99510.94
2022-08-17T04:51:09.852Z,99516.84
2022-08-17T04:53:37.671Z,99510.75
2022-08-17T04:56:05.297Z,99515.47
2022-08-17T04:58:32.264Z,99519.47
2022-08-17T05:00:59.081Z,99519.75
2022-08-17T05:03:25.940Z,99521.13
2022-08-17T05:05:53.787Z,99520.63
2022-08-17T05:08:21.485Z,99524.00
2022-08-17T05:10:49.447Z,99514.13
2022-08-17T05:13:22.999Z,99520.75
2022-08-17T05:15:54.896Z,99516.44
2022-08-17T05:18:22.308Z,99516.59
2022-08-17T05:20:51.350Z,99521.44
2022-08-17T05:23:21.240Z,99511.97
2022-08-17T05:25:50.847Z,99516.78
2022-08-17T05:28:20.035Z,99515.69
2022-08-17T05:30:51.599Z,99528.06
2022-08-17T05:33:24.401Z,99521.47
2022-08-17T05:35:53.138Z,99525.78
2022-08-17T05:38:22.449Z,99531.97
2022-08-17T05:40:49.549Z,99529.22
2022-08-17T05:43:23.834Z,99533.25
2022-08-17T05:45:56.592Z,99534.03
2022-08-17T05:48:35.605Z,99537.81
2022-08-17T05:51:22.979Z,99533.31
2022-08-17T05:54:19.914Z,99543.63
2022-08-17T05:56:56.878Z,99553.53
2022-08-17T05:59:42.446Z,99548.72
2022-08-17T06:02:18.230Z,99553.19
2022-08-17T06:04:50.610Z,99553.19
2022-08-17T06:07:35.152Z,99551.44
2022-08-17T06:10:24.705Z,99554.31
2022-08-17T06:13:08.476Z,99543.03
2022-08-17T06:15:56.744Z,99548.97
2022-08-17T06:18:28.725Z,99543.50
2022-08-17T06:21:01.789Z,99539.72
2022-08-17T06:23:54.189Z,99543.94
2022-08-17T06:26:38.493Z,99537.94
2022-08-17T06:29:31.052Z,99537.03
2022-08-17T06:31:57.816Z,99545.91
2022-08-17T06:34:24.682Z,99533.81
2022-08-17T06:37:15.422Z,99533.56
2022-08-17T06:40:08.677Z,99531.84
2022-08-17T06:43:06.003Z,99531.88
2022-08-17T06:46:01.792Z,99539.94
2022-08-17T06:48:42.517Z,99540.22
2022-08-17T06:51:28.021Z,99547.72
2022-08-17T06:54:15.300Z,99544.69
2022-08-17T06:56:53.033Z,99546.16
2022-08-17T06:59:55.490Z,99543.50
2022-08-17T07:02:53.007Z,99555.09
2022-08-17T07:05:46.895Z,99547.31
2022-08-17T07:08:35.161Z,99555.19
2022-08-17T07:11:06.845Z,99548.25
2022-08-17T07:13:43.983Z,99546.72
2022-08-17T07:16:27.506Z,99558.56
2022-08-17T07:18:56.786Z,99552.34
2022-08-17T07:21:34.594Z,99555.47
2022-08-17T07:24:30.233Z,99547.75
2022-08-17T07:27:09.981Z,99556.88
2022-08-17T07:29:49.562Z,99549.44
2022-08-17T07:32:20.204Z,99556.00
2022-08-17T07:35:19.904Z,99555.44
2022-08-17T07:38:25.485Z,99561.50
2022-08-17T07:40:57.675Z,99567.59
2022-08-17T07:43:38.151Z,99559.88
2022-08-17T07:46:38.483Z,99568.47
2022-08-17T07:49:07.922Z,99567.13
2022-08-17T07:51:39.713Z,99565.97
2022-08-17T07:54:15.564Z,99572.88
2022-08-17T07:56:49.887Z,99570.09
2022-08-17T07:59:23.757Z,99568.56
2022-08-17T08:01:57.603Z,99567.91
2022-08-17T08:07:16.797Z,99579.34
2022-08-17T08:09:46.966Z,99558.38
2022-08-17T08:12:33.882Z,99563.63
2022-08-17T08:15:33.365Z,99572.34
2022-08-17T08:18:03.054Z,99559.16
2022-08-17T08:20:53.366Z,99561.38
2022-08-17T08:23:37.506Z,99568.09
2022-08-17T08:26:36.087Z,99554.16
2022-08-17T08:29:19.288Z,99563.38
2022-08-17T08:32:02.191Z,99563.38
2022-08-17T08:35:01.547Z,99562.59
2022-08-17T08:37:42.012Z,99559.47
2022-08-17T08:40:44.339Z,99544.41
2022-08-17T08:43:32.206Z,99551.59
2022-08-17T08:46:20.884Z,99547.84
2022-08-17T08:49:14.387Z,99550.81
2022-08-17T08:52:03.165Z,99547.84
2022-08-17T08:54:47.613Z,99549.03
2022-08-17T08:57:32.919Z,99555.28
2022-08-17T09:00:13.091Z,99549.25
2022-08-17T09:02:58.549Z,99544.88
2022-08-17T09:05:49.909Z,99546.00
2022-08-17T09:08:40.978Z,99550.50
2022-08-17T09:11:31.235Z,99537.81
2022-08-17T09:14:22.125Z,99548.44
2022-08-17T09:17:24.181Z,99534.44
2022-08-17T09:20:01.210Z,99534.22
2022-08-17T09:22:37.176Z,99542.66
2022-08-17T09:25:10.070Z,99544.53
2022-08-17T09:28:03.945Z,99554.81
2022-08-17T09:31:10.298Z,99547.91
2022-08-17T09:33:47.064Z,99548.28
2022-08-17T09:36:22.967Z,99545.31
2022-08-17T09:39:15.114Z,99541.13
2022-08-17T09:41:50.403Z,99553.69
2022-08-17T09:44:41.567Z,99533.00
2022-08-17T09:47:32.392Z,99536.47
2022-08-17T09:51:04.173Z,99538.22
2022-08-17T09:53:14.633Z,99537.59
2022-08-17T09:55:52.017Z,99539.00
2022-08-17T09:58:29.615Z,99536.38
2022-08-17T10:01:29.459Z,99545.41
2022-08-17T10:04:15.593Z,99545.41
2022-08-17T10:07:19.957Z,99536.34
2022-08-17T10:09:49.533Z,99534.78
2022-08-17T10:12:34.558Z,99533.94
2022-08-17T10:15:09.574Z,99539.50
2022-08-17T10:18:07.492Z,99531.50
2022-08-17T10:20:42.970Z,99542.66
2022-08-17T10:23:46.807Z,99534.63
2022-08-17T10:26:23.146Z,99538.47
2022-08-17T10:28:55.851Z,99543.56
2022-08-17T10:31:39.782Z,99539.50
2022-08-17T10:34:12.373Z,99538.91
2022-08-17T10:36:48.377Z,99543.34
2022-08-17T10:39:21.144Z,99534.31
2022-08-17T10:41:52.962Z,99521.84
2022-08-17T10:44:48.392Z,99532.78
2022-08-17T10:47:18.741Z,99533.06
2022-08-17T10:49:54.037Z,99536.75
2022-08-17T10:52:21.825Z,99531.38
2022-08-17T10:55:11.185Z,99527.72
2022-08-17T10:57:43.783Z,99529.19
2022-08-17T11:00:15.930Z,99521.66
2022-08-17T11:02:54.531Z,99521.84
2022-08-17T11:05:24.118Z,99518.28
2022-08-17T11:08:22.185Z,99527.22
2022-08-17T11:11:10.785Z,99517.25
2022-08-17T11:13:52.467Z,99520.97
2022-08-17T11:16:53.284Z,99517.19
2022-08-17T11:19:56.617Z,99518.59
2022-08-17T11:22:44.668Z,99505.97
2022-08-17T11:25:20.473Z,99503.00
2022-08-17T11:27:53.670Z,99511.88
2022-08-17T11:30:54.598Z,99503.69
2022-08-17T11:33:56.911Z,99506.69
2022-08-17T11:36:38.861Z,99510.72
2022-08-17T11:39:26.243Z,99497.25
2022-08-17T11:41:58.123Z,99499.91
2022-08-17T11:44:56.410Z,99499.53
2022-08-17T11:48:26.123Z,99494.09
2022-08-17T11:51:18.164Z,99491.13
2022-08-17T11:53:45.886Z,99494.53
2022-08-17T11:56:35.711Z,99482.16
2022-08-17T11:59:02.910Z,99491.31
2022-08-17T12:01:32.129Z,99485.28
2022-08-17T12:04:19.042Z,99489.69
2022-08-17T12:06:52.234Z,99478.59
2022-08-17T12:09:24.953Z,99485.84
2022-08-17T12:12:25.102Z,99478.84
2022-08-17T12:15:12.924Z,99484.13
2022-08-17T12:17:42.876Z,99486.69
2022-08-17T12:20:12.685Z,99480.03
2022-08-17T12:23:01.144Z,99482.47
2022-08-17T12:25:49.349Z,99473.75
2022-08-17T12:28:32.644Z,99465.47
2022-08-17T12:31:06.417Z,99465.41
2022-08-17T12:33:35.985Z,99459.28
2022-08-17T12:36:08.738Z,99464.09
2022-08-17T12:38:37.996Z,99469.94
2022-08-17T12:41:26.384Z,99455.75
2022-08-17T12:43:58.659Z,99454.44
2022-08-17T12:46:25.782Z,99451.47
2022-08-17T12:48:59.267Z,99461.09
2022-08-17T12:51:29.185Z,99459.16
2022-08-17T12:53:56.477Z,99460.19
2022-08-17T12:56:23.238Z,99458.28
2022-08-17T12:58:54.129Z,99449.78
2022-08-17T13:01:23.492Z,99454.03
2022-08-17T13:03:54.271Z,99448.66
2022-08-17T13:06:29.078Z,99452.81
2022-08-17T13:08:55.880Z,99449.97
2022-08-17T13:11:24.942Z,99437.94
2022-08-17T13:13:56.371Z,99445.75
2022-08-17T13:16:30.715Z,99441.50
2022-08-17T13:19:08.554Z,99445.72
2022-08-17T13:21:37.937Z,99440.81
2022-08-17T13:24:10.496Z,99435.03
2022-08-17T13:26:49.616Z,99445.34
2022-08-17T13:29:24.068Z,99438.19
2022-08-17T13:32:02.730Z,99433.66
2022-08-17T13:35:11.553Z,99432.53
2022-08-17T13:37:34.364Z,99440.50
2022-08-17T13:40:10.209Z,99434.53
2022-08-17T13:42:52.627Z,99424.56
2022-08-17T13:45:34.938Z,99429.41
2022-08-17T13:48:13.816Z,99432.44
2022-08-17T13:51:07.380Z,99422.94
2022-08-17T13:53:56.688Z,99430.75
2022-08-17T13:56:38.443Z,99429.06
2022-08-17T13:59:15.834Z,99428.44
2022-08-17T14:01:50.951Z,99420.38
2022-08-17T14:04:27.896Z,99419.31
2022-08-17T14:07:00.596Z,99419.56
2022-08-17T14:09:37.222Z,99424.38
2022-08-17T14:12:09.271Z,99423.06
2022-08-17T14:14:36.462Z,99419.53
2022-08-17T14:17:03.611Z,99426.78
2022-08-17T14:19:30.313Z,99419.91
2022-08-17T14:21:59.085Z,99417.06
2022-08-17T14:24:32.027Z,99418.31
2022-08-17T14:27:00.358Z,99415.78
2022-08-17T14:29:29.139Z,99415.78
2022-08-17T14:31:57.461Z,99423.13
2022-08-17T14:34:25.649Z,99416.75
2022-08-17T14:36:52.462Z,99411.91
2022-08-17T14:39:19.731Z,99409.06
2022-08-17T14:41:46.484Z,99417.56
2022-08-17T14:44:13.488Z,99410.94
2022-08-17T14:46:45.163Z,99408.50
2022-08-17T14:49:13.199Z,99407.84
2022-08-17T14:51:43.721Z,99407.03
2022-08-17T14:54:11.559Z,99405.59
2022-08-17T14:57:11.552Z,99404.00
2022-08-17T14:59:45.061Z,99396.47
2022-08-17T15:02:12.415Z,99408.47
2022-08-17T15:04:44.923Z,99405.75
2022-08-17T15:07:12.470Z,99400.31
2022-08-17T15:09:39.294Z,99395.41
2022-08-17T15:12:08.936Z,99413.63
2022-08-17T15:14:36.291Z,99414.28
2022-08-17T15:17:03.857Z,99407.50
2022-08-17T15:19:30.875Z,99404.13
2022-08-17T15:21:57.600Z,99404.47
2022-08-17T15:24:24.238Z,99403.66
2022-08-17T15:26:51.563Z,99400.38
2022-08-17T15:29:18.420Z,99408.22
2022-08-17T15:31:45.198Z,99410.28
2022-08-17T15:34:11.957Z,99411.84
2022-08-17T15:36:38.918Z,99412.53
2022-08-17T15:39:15.830Z,99409.69
2022-08-17T15:41:47.348Z,99413.69
2022-08-17T15:44:30.075Z,99415.28
2022-08-17T15:46:59.216Z,99417.25
2022-08-17T15:49:25.861Z,99407.97
2022-08-17T15:51:52.483Z,99412.34
2022-08-17T15:54:22.850Z,99405.91
2022-08-17T15:56:50.317Z,99411.50
2022-08-17T15:59:16.950Z,99407.19
2022-08-17T16:02:33.627Z,99406.00
2022-08-17T16:04:31.768Z,99407.72
2022-08-17T16:06:59.666Z,99403.88
2022-08-17T16:09:26.468Z,99413.00
2022-08-17T16:12:14.464Z,99407.00
2022-08-17T16:14:41.220Z,99402.97
2022-08-17T16:17:39.052Z,99409.69
2022-08-17T16:19:56.215Z,99411.41
2022-08-17T16:22:37.638Z,99404.69
2022-08-17T16:25:08.690Z,99401.38
2022-08-17T16:27:35.341Z,99392.75
2022-08-17T16:30:02.314Z,99399.25
2022-08-17T16:32:31.888Z,99404.72
2022-08-17T16:35:11.280Z,99402.25
2022-08-17T16:37:40.392Z,99403.09
2022-08-17T16:40:13.854Z,99405.97
2022-08-17T16:42:41.640Z,99414.56
2022-08-17T16:45:13.842Z,99411.97
2022-08-17T16:47:41.997Z,99411.56
2022-08-17T16:50:14.066Z,99408.84
2022-08-17T16:52:41.625Z,99412.19
2022-08-17T16:55:10.525Z,99415.34
2022-08-17T16:57:49.947Z,99413.63
2022-08-17T17:00:19.406Z,99411.75
2022-08-17T17:02:49.596Z,99415.31
2022-08-17T17:05:43.546Z,99418.72
2022-08-17T17:08:44.500Z,99418.41
2022-08-17T17:11:19.384Z,99423.22
2022-08-17T17:13:54.433Z,99421.91
2022-08-17T17:16:47.088Z,99425.34
2022-08-17T17:19:38.499Z,99421.00
2022-08-17T17:22:26.766Z,99429.47
2022-08-17T17:25:19.320Z,99423.50
2022-08-17T17:28:00.875Z,99428.25
2022-08-17T17:30:53.237Z,99422.44
2022-08-17T17:33:25.091Z,99427.19
2022-08-17T17:35:51.701Z,99426.25
2022-08-17T17:38:29.470Z,99430.34
2022-08-17T17:41:02.472Z,99423.19
2022-08-17T17:43:40.182Z,99430.06
2022-08-17T17:46:27.184Z,99427.09
2022-08-17T17:48:56.839Z,99431.97
2022-08-17T17:52:09.605Z,99429.34
2022-08-17T17:55:15.814Z,99440.06
2022-08-17T17:57:52.997Z,99434.66
2022-08-17T18:00:30.395Z,99441.97
2022-08-17T18:03:38.276Z,99456.03
2022-08-17T18:06:14.999Z,99450.59
2022-08-17T18:09:02.091Z,99449.59
2022-08-17T18:12:10.688Z,99456.66
2022-08-17T18:15:15.305Z,99468.13
2022-08-17T18:18:10.737Z,99469.56
2022-08-17T18:20:46.659Z,99463.78
2022-08-17T18:23:27.634Z,99473.81
2022-08-17T18:25:58.848Z,99478.25
2022-08-17T18:28:41.407Z,99481.91
2022-08-17T18:31:19.260Z,99478.84
2022-08-17T18:33:52.858Z,99480.00
2022-08-17T18:36:32.543Z,99482.84
2022-08-17T18:39:18.349Z,99481.50
2022-08-17T18:41:48.600Z,99488.97
2022-08-17T18:44:37.834Z,99482.66
2022-08-17T18:47:25.986Z,99484.56
2022-08-17T18:49:57.808Z,99487.41
2022-08-17T18:52:33.204Z,99487.41
2022-08-17T18:54:59.854Z,99496.00
2022-08-17T18:57:39.700Z,99500.22
2022-08-17T19:00:19.308Z,99496.38
2022-08-17T19:02:54.890Z,99501.41
2022-08-17T19:05:41.058Z,99505.88
2022-08-17T19:08:17.884Z,99499.56
2022-08-17T19:10:47.399Z,99501.25
2022-08-17T19:13:35.404Z,99506.00
2022-08-17T19:16:15.057Z,99511.53
2022-08-17T19:19:23.716Z,99499.41
2022-08-17T19:21:56.244Z,99505.50
2022-08-17T19:24:25.486Z,99507.50
2022-08-17T19:27:41.825Z,99509.41
2022-08-17T19:30:15.437Z,99505.53
2022-08-17T19:32:42.585Z,99517.19
2022-08-17T19:35:16.566Z,99509.44
2022-08-17T19:38:19.293Z,99509.19
2022-08-17T19:41:11.939Z,99511.16
2022-08-17T19:43:55.717Z,99507.88
2022-08-17T19:46:35.599Z,99504.56
2022-08-17T19:49:22.745Z,99513.41
2022-08-17T19:52:37.583Z,99513.41
2022-08-17T19:55:26.218Z,99515.38
2022-08-17T19:58:11.233Z,99518.97
2022-08-17T20:00:50.484Z,99510.69
2022-08-17T20:03:29.926Z,99518.41
2022-08-17T20:06:15.525Z,99515.69
2022-08-17T20:08:55.368Z,99523.38
2022-08-17T20:11:31.446Z,99517.88
2022-08-17T20:14:01.048Z,99515.69
2022-08-17T20:16:27.795Z,99519.53
2022-08-17T20:19:08.544Z,99513.47
2022-08-17T20:22:15.440Z,99516.78
2022-08-17T20:24:51.062Z,99516.78
2022-08-17T20:27:31.908Z,99522.31
2022-08-17T20:29:58.716Z,99518.97
2022-08-17T20:32:32.992Z,99512.34
2022-08-17T20:35:07.753Z,99523.44
2022-08-17T20:37:35.941Z,99524.00
2022-08-17T20:40:05.795Z,99516.53
2022-08-17T20:42:34.252Z,99524.81
2022-08-17T20:45:25.110Z,99524.53
2022-08-17T20:48:30.582Z,99519.56
2022-08-17T20:50:51.864Z,99520.09
2022-08-17T20:53:46.568Z,99519.56
2022-08-17T20:56:45.239Z,99520.66
2022-08-17T20:59:21.308Z,99512.38
2022-08-17T21:02:12.425Z,99517.91
2022-08-17T21:04:57.439Z,99509.59
2022-08-17T21:07:42.739Z,99515.66
2022-08-17T21:10:35.691Z,99513.75
2022-08-17T21:13:10.232Z,99518.44
2022-08-17T21:15:54.400Z,99507.38
2022-08-17T21:18:55.067Z,99514.84
2022-08-17T21:21:33.644Z,99512.88
2022-08-17T21:24:17.719Z,99505.97
2022-08-17T21:27:02.239Z,99501.81
2022-08-17T21:29:34.091Z,99503.72
2022-08-17T21:32:08.998Z,99503.44
2022-08-17T21:35:15.604Z,99496.81
2022-08-17T21:37:44.935Z,99510.59
2022-08-17T21:40:18.650Z,99505.63
2022-08-17T21:42:52.752Z,99501.47
2022-08-17T21:45:38.128Z,99502.88
2022-08-17T21:48:20.438Z,99503.41
2022-08-17T21:51:08.989Z,99504.78
2022-08-17T21:53:51.253Z,99511.69
2022-08-17T21:56:41.762Z,99503.91
2022-08-17T21:59:35.700Z,99501.13
2022-08-17T22:02:19.878Z,99504.94
2022-08-17T22:05:06.989Z,99497.22
2022-08-17T22:08:02.250Z,99500.50
2022-08-17T22:10:41.793Z,99494.44
2022-08-17T22:13:17.028Z,99497.72
2022-08-17T22:15:47.723Z,99495.50
2022-08-17T22:18:20.379Z,99490.53
2022-08-17T22:20:55.756Z,99494.38
2022-08-17T22:23:50.004Z,99507.63
2022-08-17T22:26:20.001Z,99504.84
2022-08-17T22:28:57.564Z,99501.22
2022-08-17T22:31:32.719Z,99514.69
2022-08-17T22:34:02.384Z,99507.53
2022-08-17T22:36:42.261Z,99521.28
2022-08-17T22:39:11.596Z,99522.88
2022-08-17T22:41:59.474Z,99524.94
2022-08-17T22:44:32.054Z,99521.03
2022-08-17T22:47:49.185Z,99523.16
2022-08-17T22:50:26.039Z,99528.06
2022-08-17T22:53:19.557Z,99537.94
2022-08-17T22:56:15.489Z,99540.66
2022-08-17T22:59:09.875Z,99539.84
2022-08-17T23:01:39.240Z,99542.41
2022-08-17T23:04:32.961Z,99525.34
2022-08-17T23:07:00.714Z,99535.84
2022-08-17T23:09:29.937Z,99536.94
2022-08-17T23:11:58.721Z,99539.72
2022-08-17T23:14:35.054Z,99542.41
2022-08-17T23:17:03.339Z,99546.28
2022-08-17T23:19:32.812Z,99544.31
2022-08-17T23:22:04.282Z,99547.34
2022-08-17T23:24:35.611Z,99547.63
2022-08-17T23:27:09.869Z,99546.16
2022-08-17T23:29:42.357Z,99551.13
2022-08-17T23:32:17.707Z,99538.44
2022-08-17T23:34:47.038Z,99543.91
2022-08-17T23:37:15.771Z,99542.75
2022-08-17T23:39:45.159Z,99547.63
2022-08-17T23:42:16.512Z,99548.59
2022-08-17T23:44:44.828Z,99544.72
2022-08-17T23:47:12.592Z,99547.41
2022-08-17T23:49:42.368Z,99546.88
2022-08-17T23:52:16.516Z,99548.84
2022-08-17T23:54:47.315Z,99539.31
2022-08-17T23:57:20.117Z,99542.31
